createdAt,value
2023-09-01T00:01:19.249Z,99.89
2023-09-01T00:04:06.361Z,99.96
2023-09-01T00:06:33.238Z,100.00
2023-09-01T00:08:59.983Z,100.00
2023-09-01T00:11:26.714Z,100.00
2023-09-01T00:13:53.563Z,100.00
2023-09-01T00:16:20.356Z,100.00
2023-09-01T00:18:47.128Z,100.00
2023-09-01T00:21:13.972Z,100.00
2023-09-01T00:23:41.621Z,100.00
2023-09-01T00:26:08.569Z,100.00
2023-09-01T00:28:35.278Z,100.00
2023-09-01T00:31:02.345Z,100.00
2023-09-01T00:33:30.811Z,100.00
2023-09-01T00:35:59.879Z,100.00
2023-09-01T00:38:26.965Z,100.00
2023-09-01T00:40:54.392Z,100.00
2023-09-01T00:43:21.341Z,100.00
2023-09-01T00:45:48.957Z,100.00
2023-09-01T00:48:15.962Z,100.00
2023-09-01T00:50:43.231Z,100.00
2023-09-01T00:53:10.356Z,100.00
2023-09-01T00:55:37.669Z,100.00
2023-09-01T00:58:05.121Z,100.00
2023-09-01T01:00:34.081Z,100.00
2023-09-01T01:03:09.717Z,100.00
2023-09-01T01:05:48.716Z,100.00
2023-09-01T01:08:24.248Z,100.00
2023-09-01T01:11:00.098Z,100.00
2023-09-01T01:13:32.139Z,100.00
2023-09-01T01:16:00.811Z,100.00
2023-09-01T01:18:30.024Z,100.00
2023-09-01T01:21:23.705Z,100.00
2023-09-01T01:23:52.393Z,100.00
2023-09-01T01:26:20.136Z,100.00
2023-09-01T01:28:46.991Z,100.00
2023-09-01T01:31:14.286Z,100.00
2023-09-01T01:33:57.458Z,100.00
2023-09-01T01:36:39.215Z,100.00
2023-09-01T01:39:17.166Z,100.00
2023-09-01T01:41:57.786Z,100.00
2023-09-01T01:44:40.240Z,100.00
2023-09-01T01:47:09.197Z,100.00
2023-09-01T01:49:35.998Z,100.00
2023-09-01T01:52:03.130Z,100.00
2023-09-01T01:54:31.711Z,100.00
2023-09-01T01:56:59.003Z,100.00
2023-09-01T01:59:26.097Z,100.00
2023-09-01T02:01:52.907Z,100.00
2023-09-01T02:04:19.711Z,100.00
2023-09-01T02:06:46.505Z,100.00
2023-09-01T02:09:15.317Z,100.00
2023-09-01T02:11:42.128Z,100.00
2023-09-01T02:14:09.252Z,100.00
2023-09-01T02:16:36.402Z,100.00
2023-09-01T02:19:03.259Z,100.00
2023-09-01T02:21:29.994Z,100.00
2023-09-01T02:23:56.899Z,100.00
2023-09-01T02:26:24.876Z,100.00
2023-09-01T02:28:51.999Z,100.00
2023-09-01T02:31:19.190Z,100.00
2023-09-01T02:33:46.063Z,100.00
2023-09-01T02:36:30.875Z,100.00
2023-09-01T02:38:58.816Z,100.00
2023-09-01T02:41:26.288Z,100.00
2023-09-01T02:43:54.279Z,100.00
2023-09-01T02:46:21.665Z,100.00
2023-09-01T02:48:48.883Z,100.00
2023-09-01T02:51:15.735Z,100.00
2023-09-01T02:53:42.865Z,100.00
2023-09-01T02:56:09.869Z,100.00
2023-09-01T02:58:37.518Z,100.00
2023-09-01T03:01:09.872Z,100.00
2023-09-01T03:03:42.114Z,100.00
2023-09-01T03:06:10.012Z,100.00
2023-09-01T03:08:38.811Z,100.00
2023-09-01T03:11:06.254Z,100.00
2023-09-01T03:13:33.357Z,100.00
2023-09-01T03:16:00.310Z,100.00
2023-09-01T03:18:27.150Z,100.00
2023-09-01T03:20:54.821Z,100.00
2023-09-01T03:23:23.187Z,100.00
2023-09-01T03:25:55.647Z,100.00
2023-09-01T03:28:23.843Z,100.00
2023-09-01T03:30:50.867Z,100.00
2023-09-01T03:33:19.641Z,100.00
2023-09-01T03:35:46.465Z,100.00
2023-09-01T03:38:13.714Z,100.00
2023-09-01T03:40:40.905Z,100.00
2023-09-01T03:43:10.598Z,100.00
2023-09-01T03:45:38.013Z,100.00
2023-09-01T03:48:05.403Z,100.00
2023-09-01T03:50:35.215Z,100.00
2023-09-01T03:53:02.679Z,100.00
2023-09-01T03:55:29.498Z,100.00
2023-09-01T03:57:56.249Z,100.00
2023-09-01T04:00:23.595Z,100.00
2023-09-01T04:02:51.473Z,100.00
2023-09-01T04:05:18.399Z,100.00
2023-09-01T04:07:46.001Z,100.00
2023-09-01T04:10:12.893Z,100.00
2023-09-01T04:12:39.716Z,100.00
2023-09-01T04:15:08.258Z,100.00
2023-09-01T04:17:36.680Z,100.00
2023-09-01T04:20:06.850Z,100.00
2023-09-01T04:22:33.627Z,100.00
2023-09-01T04:25:00.571Z,100.00
2023-09-01T04:27:27.361Z,100.00
2023-09-01T04:30:09.007Z,100.00
2023-09-01T04:32:38.182Z,100.00
2023-09-01T04:35:06.406Z,100.00
2023-09-01T04:37:33.352Z,100.00
2023-09-01T04:40:00.291Z,100.00
2023-09-01T04:42:27.162Z,100.00
2023-09-01T04:44:53.940Z,100.00
2023-09-01T04:47:20.714Z,100.00
2023-09-01T04:49:47.644Z,100.00
2023-09-01T04:52:16.099Z,100.00
2023-09-01T04:54:43.411Z,100.00
2023-09-01T04:57:10.166Z,100.00
2023-09-01T04:59:37.025Z,100.00
2023-09-01T05:02:03.778Z,100.00
2023-09-01T05:04:30.606Z,100.00
2023-09-01T05:06:57.450Z,100.00
2023-09-01T05:09:24.508Z,100.00
2023-09-01T05:11:51.419Z,100.00
2023-09-01T05:14:18.194Z,100.00
2023-09-01T05:16:45.020Z,100.00
2023-09-01T05:19:11.804Z,100.00
2023-09-01T05:21:38.955Z,100.00
2023-09-01T05:24:06.289Z,100.00
2023-09-01T05:26:33.242Z,100.00
2023-09-01T05:29:00.071Z,100.00
2023-09-01T05:31:26.948Z,100.00
2023-09-01T05:33:54.192Z,100.00
2023-09-01T05:36:20.972Z,100.00
2023-09-01T05:38:48.511Z,100.00
2023-09-01T05:41:15.837Z,100.00
2023-09-01T05:43:42.621Z,100.00
2023-09-01T05:46:09.675Z,100.00
2023-09-01T05:48:37.970Z,100.00
2023-09-01T05:51:04.955Z,100.00
2023-09-01T05:53:31.737Z,100.00
2023-09-01T05:55:58.550Z,100.00
2023-09-01T05:58:25.701Z,100.00
2023-09-01T06:00:52.482Z,100.00
2023-09-01T06:03:19.333Z,100.00
2023-09-01T06:05:46.137Z,100.00
2023-09-01T06:08:13.184Z,100.00
2023-09-01T06:10:40.210Z,100.00
2023-09-01T06:13:06.955Z,99.98
2023-09-01T06:15:34.156Z,99.63
2023-09-01T06:18:00.940Z,98.61
2023-09-01T06:20:29.545Z,98.61
2023-09-01T06:22:57.398Z,98.05
2023-09-01T06:25:24.325Z,97.72
2023-09-01T06:27:51.148Z,97.48
2023-09-01T06:30:18.144Z,96.45
2023-09-01T06:32:47.434Z,96.13
2023-09-01T06:35:15.993Z,95.88
2023-09-01T06:37:42.731Z,95.15
2023-09-01T06:40:10.147Z,94.91
2023-09-01T06:42:36.898Z,93.32
2023-09-01T06:45:05.119Z,93.56
2023-09-01T06:47:31.975Z,94.06
2023-09-01T06:49:58.804Z,92.37
2023-09-01T06:52:25.585Z,92.02
2023-09-01T06:54:52.429Z,92.00
2023-09-01T06:57:19.451Z,91.75
2023-09-01T06:59:46.347Z,91.06
2023-09-01T07:02:13.044Z,90.16
2023-09-01T07:04:39.817Z,89.58
2023-09-01T07:07:06.515Z,89.14
2023-09-01T07:09:33.292Z,86.13
2023-09-01T07:12:00.006Z,87.06
2023-09-01T07:14:26.769Z,87.11
2023-09-01T07:16:53.520Z,85.41
2023-09-01T07:19:20.317Z,85.28
2023-09-01T07:21:47.047Z,85.13
2023-09-01T07:24:13.835Z,85.98
2023-09-01T07:26:40.600Z,86.20
2023-09-01T07:29:07.322Z,86.02
2023-09-01T07:31:34.130Z,85.42
2023-09-01T07:34:01.312Z,84.82
2023-09-01T07:36:28.047Z,85.34
2023-09-01T07:38:54.811Z,82.93
2023-09-01T07:41:21.651Z,82.69
2023-09-01T07:43:50.168Z,81.12
2023-09-01T07:46:16.924Z,81.04
2023-09-01T07:48:43.806Z,81.00
2023-09-01T07:51:10.600Z,79.94
2023-09-01T07:53:37.902Z,80.00
2023-09-01T07:56:05.987Z,79.21
2023-09-01T07:58:33.152Z,79.46
2023-09-01T08:01:00.152Z,77.88
2023-09-01T08:03:27.454Z,77.34
2023-09-01T08:05:54.369Z,77.55
2023-09-01T08:08:21.134Z,78.01
2023-09-01T08:10:47.848Z,77.74
2023-09-01T08:13:14.605Z,78.03
2023-09-01T08:15:41.415Z,76.91
2023-09-01T08:18:08.252Z,75.73
2023-09-01T08:20:35.266Z,75.25
2023-09-01T08:23:02.293Z,75.94
2023-09-01T08:25:29.044Z,75.33
2023-09-01T08:27:55.814Z,73.11
2023-09-01T08:30:22.928Z,74.43
2023-09-01T08:32:49.829Z,73.54
2023-09-01T08:35:16.638Z,73.30
2023-09-01T08:37:43.458Z,72.28
2023-09-01T08:40:13.501Z,73.25
2023-09-01T08:42:48.330Z,72.98
2023-09-01T08:45:16.589Z,70.42
2023-09-01T08:47:50.452Z,69.67
2023-09-01T08:50:19.402Z,68.51
2023-09-01T08:52:47.755Z,67.47
2023-09-01T08:55:15.731Z,68.02
2023-09-01T08:57:42.836Z,67.59
2023-09-01T09:00:10.384Z,68.04
2023-09-01T09:02:46.897Z,68.74
2023-09-01T09:05:24.407Z,67.95
2023-09-01T09:08:07.494Z,67.41
2023-09-01T09:10:39.896Z,66.32
2023-09-01T09:13:30.979Z,64.67
2023-09-01T09:16:14.508Z,62.24
2023-09-01T09:18:44.153Z,62.41
2023-09-01T09:21:27.408Z,62.40
2023-09-01T09:24:11.093Z,61.76
2023-09-01T09:26:42.750Z,61.93
2023-09-01T09:29:12.905Z,61.32
2023-09-01T09:31:45.619Z,61.19
2023-09-01T09:34:21.296Z,59.84
2023-09-01T09:36:49.600Z,60.35
2023-09-01T09:39:27.504Z,60.10
2023-09-01T09:41:55.807Z,58.19
2023-09-01T09:44:37.060Z,57.73
2023-09-01T09:47:11.694Z,56.94
2023-09-01T09:49:39.767Z,57.37
2023-09-01T09:52:10.548Z,56.90
2023-09-01T09:54:44.855Z,56.45
2023-09-01T09:57:16.388Z,54.43
2023-09-01T09:59:48.206Z,55.34
2023-09-01T10:02:31.350Z,53.90
2023-09-01T10:04:59.920Z,53.13
2023-09-01T10:07:26.691Z,54.55
2023-09-01T10:09:54.020Z,53.75
2023-09-01T10:12:21.061Z,53.84
2023-09-01T10:14:50.518Z,54.18
2023-09-01T10:17:21.776Z,52.16
2023-09-01T10:19:49.764Z,52.62
2023-09-01T10:22:18.030Z,52.75
2023-09-01T10:25:17.448Z,50.89
2023-09-01T10:28:17.137Z,50.02
2023-09-01T10:30:46.233Z,51.46
2023-09-01T10:33:15.797Z,50.41
2023-09-01T10:35:52.600Z,47.85
2023-09-01T10:38:23.820Z,49.29
2023-09-01T10:40:54.779Z,49.29
2023-09-01T10:43:54.462Z,49.35
2023-09-01T10:46:26.193Z,50.30
2023-09-01T10:49:05.464Z,49.08
2023-09-01T10:51:41.420Z,48.54
2023-09-01T10:54:17.014Z,48.50
2023-09-01T10:56:56.782Z,47.53
2023-09-01T10:59:36.406Z,47.37
2023-09-01T11:02:23.757Z,46.88
2023-09-01T11:04:51.257Z,47.34
2023-09-01T11:07:18.201Z,47.96
2023-09-01T11:09:50.120Z,47.85
2023-09-01T11:12:17.252Z,47.51
2023-09-01T11:14:58.080Z,48.40
2023-09-01T11:17:45.432Z,49.33
2023-09-01T11:20:15.839Z,48.90
2023-09-01T11:22:43.400Z,49.66
2023-09-01T11:25:13.992Z,50.32
2023-09-01T11:27:48.362Z,50.44
2023-09-01T11:30:17.963Z,51.07
2023-09-01T11:32:44.933Z,51.91
2023-09-01T11:35:25.509Z,52.26
2023-09-01T11:37:52.308Z,52.49
2023-09-01T11:40:19.800Z,53.84
2023-09-01T11:42:47.185Z,54.72
2023-09-01T11:45:13.980Z,54.49
2023-09-01T11:47:41.478Z,55.14
2023-09-01T11:50:13.999Z,56.01
2023-09-01T11:52:54.799Z,56.07
2023-09-01T11:55:32.294Z,55.45
2023-09-01T11:57:59.334Z,55.70
2023-09-01T12:00:37.049Z,56.26
2023-09-01T12:03:05.530Z,55.87
2023-09-01T12:05:37.039Z,56.66
2023-09-01T12:08:05.359Z,57.38
2023-09-01T12:10:32.948Z,57.76
2023-09-01T12:13:03.869Z,57.66
2023-09-01T12:15:30.727Z,58.44
2023-09-01T12:17:57.799Z,58.53
2023-09-01T12:20:24.919Z,58.20
2023-09-01T12:22:51.686Z,58.02
2023-09-01T12:25:19.120Z,58.56
2023-09-01T12:27:45.860Z,58.98
2023-09-01T12:30:12.754Z,59.86
2023-09-01T12:32:39.679Z,59.43
2023-09-01T12:35:07.043Z,59.81
2023-09-01T12:37:33.896Z,60.33
2023-09-01T12:40:00.630Z,60.05
2023-09-01T12:42:27.364Z,60.71
2023-09-01T12:44:54.124Z,61.21
2023-09-01T12:47:20.857Z,61.39
2023-09-01T12:49:50.416Z,61.75
2023-09-01T12:52:18.110Z,62.00
2023-09-01T12:54:45.219Z,62.50
2023-09-01T12:57:11.953Z,62.59
2023-09-01T12:59:38.733Z,62.56
2023-09-01T13:02:05.480Z,62.19
2023-09-01T13:04:33.420Z,62.30
2023-09-01T13:07:00.159Z,62.63
2023-09-01T13:09:26.887Z,62.59
2023-09-01T13:11:53.642Z,62.30
2023-09-01T13:14:20.398Z,62.69
2023-09-01T13:16:47.169Z,62.31
2023-09-01T13:19:13.903Z,61.21
2023-09-01T13:21:40.650Z,60.83
2023-09-01T13:24:08.534Z,61.30
2023-09-01T13:26:35.308Z,61.29
2023-09-01T13:29:02.122Z,60.91
2023-09-01T13:31:28.888Z,61.12
2023-09-01T13:33:55.645Z,60.35
2023-09-01T13:36:22.474Z,61.15
2023-09-01T13:38:51.147Z,61.13
2023-09-01T13:41:17.915Z,60.60
2023-09-01T13:43:44.629Z,61.01
2023-09-01T13:46:26.785Z,59.81
2023-09-01T13:49:00.996Z,60.73
2023-09-01T13:51:29.791Z,61.31
2023-09-01T13:53:57.502Z,61.60
2023-09-01T13:59:59.649Z,62.00
2023-09-01T14:02:26.521Z,61.86
2023-09-01T14:04:53.295Z,61.90
2023-09-01T14:07:20.077Z,61.69
2023-09-01T14:09:46.878Z,61.29
2023-09-01T14:12:13.638Z,61.49
2023-09-01T14:14:40.441Z,62.17
2023-09-01T14:17:07.228Z,61.61
2023-09-01T14:19:34.051Z,62.17
2023-09-01T14:22:00.780Z,61.26
2023-09-01T14:24:27.633Z,60.45
2023-09-01T14:26:54.755Z,60.39
2023-09-01T14:29:21.684Z,61.24
2023-09-01T14:31:48.860Z,60.87
2023-09-01T14:34:15.721Z,60.78
2023-09-01T14:36:42.618Z,61.21
2023-09-01T14:39:09.590Z,59.96
2023-09-01T14:41:36.377Z,60.03
2023-09-01T14:44:03.394Z,60.13
2023-09-01T14:46:34.351Z,60.87
2023-09-01T14:49:02.246Z,60.78
2023-09-01T14:51:30.223Z,61.00
2023-09-01T14:53:57.073Z,61.31
2023-09-01T14:56:24.924Z,61.66
2023-09-01T14:58:55.373Z,61.49
2023-09-01T15:01:23.491Z,61.41
2023-09-01T15:03:50.587Z,62.50
2023-09-01T15:06:17.518Z,62.42
2023-09-01T15:08:44.273Z,62.62
2023-09-01T15:11:11.082Z,62.58
2023-09-01T15:13:38.008Z,61.86
2023-09-01T15:16:05.354Z,62.27
2023-09-01T15:18:32.553Z,62.00
2023-09-01T15:21:08.255Z,62.84
2023-09-01T15:23:35.976Z,62.59
2023-09-01T15:26:03.046Z,63.19
2023-09-01T15:28:29.829Z,63.46
2023-09-01T15:30:56.595Z,63.64
2023-09-01T15:33:23.501Z,63.74
2023-09-01T15:35:58.586Z,62.75
2023-09-01T15:38:27.820Z,63.05
2023-09-01T15:40:54.621Z,63.22
2023-09-01T15:43:21.699Z,63.69
2023-09-01T15:45:48.685Z,63.27
2023-09-01T15:48:15.699Z,63.11
2023-09-01T15:50:46.439Z,62.84
2023-09-01T15:53:15.454Z,62.75
2023-09-01T15:55:43.150Z,62.16
2023-09-01T15:58:10.058Z,61.62
2023-09-01T16:00:38.791Z,61.51
2023-09-01T16:03:06.603Z,61.63
2023-09-01T16:05:34.490Z,61.35
2023-09-01T16:08:02.058Z,61.82
2023-09-01T16:10:29.093Z,62.23
2023-09-01T16:12:56.839Z,62.08
2023-09-01T16:15:24.621Z,62.08
2023-09-01T16:17:53.348Z,62.41
2023-09-01T16:20:21.362Z,62.01
2023-09-01T16:22:49.126Z,62.38
2023-09-01T16:25:15.923Z,62.80
2023-09-01T16:27:42.997Z,63.42
2023-09-01T16:30:10.417Z,63.70
2023-09-01T16:32:37.242Z,64.95
2023-09-01T16:35:21.582Z,65.94
2023-09-01T16:37:50.452Z,66.31
2023-09-01T16:40:17.407Z,66.98
2023-09-01T16:42:44.752Z,67.43
2023-09-01T16:45:12.132Z,68.34
2023-09-01T16:47:39.224Z,69.35
2023-09-01T16:50:06.660Z,69.78
2023-09-01T16:52:33.667Z,70.84
2023-09-01T16:55:00.478Z,70.96
2023-09-01T16:57:27.340Z,71.63
2023-09-01T16:59:54.024Z,72.54
2023-09-01T17:02:20.836Z,72.57
2023-09-01T17:04:47.586Z,72.84
2023-09-01T17:07:14.297Z,72.98
2023-09-01T17:09:41.072Z,73.40
2023-09-01T17:12:07.985Z,74.95
2023-09-01T17:14:34.753Z,74.96
2023-09-01T17:17:01.510Z,75.20
2023-09-01T17:19:28.263Z,75.22
2023-09-01T17:21:55.059Z,75.52
2023-09-01T17:24:21.858Z,75.59
2023-09-01T17:26:48.644Z,75.62
2023-09-01T17:29:15.474Z,76.46
2023-09-01T17:31:42.204Z,76.73
2023-09-01T17:34:08.984Z,77.39
2023-09-01T17:36:35.722Z,77.76
2023-09-01T17:39:02.573Z,77.72
2023-09-01T17:41:39.957Z,78.16
2023-09-01T17:44:07.283Z,79.03
2023-09-01T17:46:34.612Z,79.63
2023-09-01T17:49:02.773Z,80.29
2023-09-01T17:51:29.791Z,80.34
2023-09-01T17:53:57.607Z,80.87
2023-09-01T17:56:24.976Z,81.64
2023-09-01T17:58:51.846Z,82.21
2023-09-01T18:01:18.707Z,82.30
2023-09-01T18:03:45.694Z,82.60
2023-09-01T18:06:14.244Z,82.94
2023-09-01T18:08:41.168Z,84.05
2023-09-01T18:11:18.540Z,83.86
2023-09-01T18:13:46.010Z,84.83
2023-09-01T18:16:12.967Z,85.15
2023-09-01T18:18:40.901Z,85.48
2023-09-01T18:21:08.124Z,85.60
2023-09-01T18:23:34.892Z,86.21
2023-09-01T18:26:14.817Z,86.36
2023-09-01T18:28:46.364Z,86.90
2023-09-01T18:31:21.597Z,87.30
2023-09-01T18:33:50.180Z,87.63
2023-09-01T18:36:24.605Z,87.82
2023-09-01T18:38:57.540Z,88.93
2023-09-01T18:41:26.894Z,89.12
2023-09-01T18:43:57.127Z,89.52
2023-09-01T18:46:29.635Z,89.73
2023-09-01T18:49:00.757Z,89.82
2023-09-01T18:51:27.671Z,90.05
2023-09-01T18:53:54.446Z,90.20
2023-09-01T18:56:23.824Z,90.39
2023-09-01T18:58:50.926Z,90.46
2023-09-01T19:01:18.938Z,90.88
2023-09-01T19:03:45.947Z,90.58
2023-09-01T19:06:24.319Z,90.90
2023-09-01T19:08:51.573Z,91.37
2023-09-01T19:11:18.508Z,91.09
2023-09-01T19:13:50.879Z,91.42
2023-09-01T19:16:19.946Z,91.34
2023-09-01T19:18:47.909Z,91.36
2023-09-01T19:21:15.559Z,91.24
2023-09-01T19:23:43.216Z,91.24
2023-09-01T19:26:42.468Z,90.99
2023-09-01T19:29:13.895Z,91.06
2023-09-01T19:31:46.109Z,91.09
2023-09-01T19:34:14.729Z,90.92
2023-09-01T19:36:42.329Z,90.89
2023-09-01T19:39:10.921Z,91.21
2023-09-01T19:41:38.576Z,91.19
2023-09-01T19:44:09.032Z,91.38
2023-09-01T19:46:38.383Z,91.12
2023-09-01T19:49:15.078Z,91.56
2023-09-01T19:51:44.847Z,91.48
2023-09-01T19:54:17.485Z,91.57
2023-09-01T19:56:44.340Z,91.47
2023-09-01T19:59:11.232Z,91.65
2023-09-01T20:01:39.201Z,91.75
2023-09-01T20:04:07.168Z,91.94
2023-09-01T20:06:35.381Z,92.31
2023-09-01T20:09:23.541Z,92.35
2023-09-01T20:11:52.795Z,92.58
2023-09-01T20:14:19.670Z,93.07
2023-09-01T20:16:46.615Z,93.44
2023-09-01T20:19:21.250Z,93.90
2023-09-01T20:21:48.221Z,93.90
2023-09-01T20:24:14.977Z,93.96
2023-09-01T20:26:41.799Z,94.38
2023-09-01T20:29:08.655Z,94.65
2023-09-01T20:31:37.558Z,94.92
2023-09-01T20:34:07.933Z,95.01
2023-09-01T20:36:35.052Z,95.08
2023-09-01T20:39:01.821Z,95.58
2023-09-01T20:41:28.596Z,96.40
2023-09-01T20:43:55.340Z,95.92
2023-09-01T20:46:22.150Z,96.32
2023-09-01T20:48:48.919Z,96.04
2023-09-01T20:51:15.736Z,96.21
2023-09-01T20:53:42.522Z,96.50
2023-09-01T20:56:09.405Z,96.41
2023-09-01T20:58:36.315Z,96.32
2023-09-01T21:01:04.082Z,96.38
2023-09-01T21:03:31.222Z,96.34
2023-09-01T21:05:57.958Z,96.60
2023-09-01T21:08:24.885Z,96.68
2023-09-01T21:10:51.618Z,96.30
2023-09-01T21:13:18.585Z,96.59
2023-09-01T21:15:47.818Z,96.40
2023-09-01T21:18:14.616Z,96.95
2023-09-01T21:20:41.432Z,96.98
2023-09-01T21:23:08.178Z,96.72
2023-09-01T21:25:35.999Z,96.92
2023-09-01T21:28:03.493Z,96.96
2023-09-01T21:30:30.429Z,96.66
2023-09-01T21:32:57.331Z,96.55
2023-09-01T21:35:24.075Z,96.70
2023-09-01T21:37:50.800Z,96.63
2023-09-01T21:40:17.533Z,96.80
2023-09-01T21:42:44.260Z,96.93
2023-09-01T21:45:11.755Z,96.78
2023-09-01T21:47:38.636Z,96.64
2023-09-01T21:50:06.392Z,96.44
2023-09-01T21:52:33.457Z,96.41
2023-09-01T21:55:00.300Z,96.63
2023-09-01T21:57:28.947Z,96.63
2023-09-01T21:59:55.779Z,96.14
2023-09-01T22:02:22.633Z,96.26
2023-09-01T22:04:52.201Z,96.33
2023-09-01T22:07:19.659Z,96.15
2023-09-01T22:09:46.703Z,96.44
2023-09-01T22:12:13.479Z,96.37
2023-09-01T22:14:40.239Z,96.30
2023-09-01T22:17:07.073Z,96.10
2023-09-01T22:19:33.829Z,96.34
2023-09-01T22:22:00.849Z,96.23
2023-09-01T22:24:32.409Z,96.18
2023-09-01T22:27:00.136Z,96.37
2023-09-01T22:29:29.190Z,96.62
2023-09-01T22:31:59.151Z,96.40
2023-09-01T22:34:25.916Z,96.45
2023-09-01T22:36:52.699Z,96.81
2023-09-01T22:39:19.400Z,97.09
2023-09-01T22:41:46.151Z,97.02
2023-09-01T22:44:12.871Z,97.23
2023-09-01T22:46:39.728Z,97.50
2023-09-01T22:49:06.611Z,97.62
2023-09-01T22:51:33.607Z,97.95
2023-09-01T22:54:03.042Z,98.06
2023-09-01T22:56:30.097Z,97.92
2023-09-01T22:58:56.872Z,98.16
2023-09-01T23:01:23.660Z,98.45
2023-09-01T23:03:50.453Z,98.51
2023-09-01T23:06:17.292Z,98.53
2023-09-01T23:08:44.071Z,98.74
2023-09-01T23:11:11.399Z,98.85
2023-09-01T23:13:38.111Z,98.78
2023-09-01T23:16:05.013Z,98.53
2023-09-01T23:18:31.754Z,98.96
2023-09-01T23:20:59.921Z,98.72
2023-09-01T23:23:26.995Z,98.86
2023-09-01T23:25:53.765Z,98.85
2023-09-01T23:28:20.483Z,98.94
2023-09-01T23:30:47.274Z,99.37
2023-09-01T23:33:14.105Z,99.37
2023-09-01T23:35:40.900Z,99.28
2023-09-01T23:38:07.846Z,99.46
2023-09-01T23:40:34.579Z,99.32
2023-09-01T23:43:01.430Z,99.62
2023-09-01T23:45:28.268Z,99.26
2023-09-01T23:47:56.789Z,99.61
2023-09-01T23:50:23.709Z,99.64
2023-09-01T23:52:50.457Z,99.64
2023-09-01T23:55:17.347Z,99.84
2023-09-01T23:57:44.101Z,99.52
